createdAt,value
2019-03-18T00:00:44.238Z,98145.58
2019-03-18T00:03:14.408Z,98143.92
2019-03-18T00:05:44.538Z,98150.00
2019-03-18T00:08:14.749Z,98142.64
2019-03-18T00:10:44.996Z,98145.38
2019-03-18T00:13:15.179Z,98143.27
2019-03-18T00:15:45.305Z,98151.69
2019-03-18T00:18:15.463Z,98153.44
2019-03-18T00:20:45.564Z,98158.76
2019-03-18T00:23:15.714Z,98159.89
2019-03-18T00:25:45.859Z,98160.87
2019-03-18T00:28:15.996Z,98158.20
2019-03-18T00:30:46.106Z,98164.78
2019-03-18T00:33:16.235Z,98165.89
2019-03-18T00:35:46.387Z,98166.88
2019-03-18T00:38:16.532Z,98162.33
2019-03-18T00:40:46.639Z,98159.10
2019-03-18T00:43:16.779Z,98169.53
2019-03-18T00:45:46.896Z,98162.75
2019-03-18T00:48:17.044Z,98170.38
2019-03-18T00:50:47.191Z,98163.67
2019-03-18T00:53:17.348Z,98162.42
2019-03-18T00:55:47.472Z,98162.83
2019-03-18T00:58:17.610Z,98163.59
2019-03-18T01:00:47.732Z,98165.00
2019-03-18T01:03:17.871Z,98157.72
2019-03-18T01:05:48.022Z,98150.98
2019-03-18T01:08:18.148Z,98147.61
2019-03-18T01:10:48.277Z,98154.05
2019-03-18T01:13:18.456Z,98149.50
2019-03-18T01:15:48.614Z,98149.43
2019-03-18T01:18:18.776Z,98149.64
2019-03-18T01:20:48.896Z,98153.73
2019-03-18T01:23:19.056Z,98154.20
2019-03-18T01:25:49.185Z,98153.11
2019-03-18T01:28:19.350Z,98156.50
2019-03-18T01:30:49.470Z,98149.80
2019-03-18T01:33:19.646Z,98143.64
2019-03-18T01:35:49.762Z,98149.86
2019-03-18T01:38:19.916Z,98160.03
2019-03-18T01:40:50.051Z,98151.81
2019-03-18T01:43:20.169Z,98166.06
2019-03-18T01:45:50.298Z,98161.02
2019-03-18T01:48:20.413Z,98157.30
2019-03-18T01:50:50.582Z,98160.72
2019-03-18T01:53:20.753Z,98160.45
2019-03-18T01:55:50.902Z,98157.86
2019-03-18T01:58:21.087Z,98160.49
2019-03-18T02:00:51.188Z,98161.42
2019-03-18T02:03:21.338Z,98161.02
2019-03-18T02:05:51.460Z,98154.82
2019-03-18T02:08:21.605Z,98162.25
2019-03-18T02:10:51.868Z,98159.66
2019-03-18T02:13:22.018Z,98155.32
2019-03-18T02:15:53.484Z,98151.12
2019-03-18T02:18:23.967Z,98154.70
2019-03-18T02:20:54.136Z,98151.68
2019-03-18T02:23:24.338Z,98145.09
2019-03-18T02:25:55.062Z,98147.41
2019-03-18T02:28:25.180Z,98156.94
2019-03-18T02:30:55.342Z,98141.73
2019-03-18T02:33:25.491Z,98148.81
2019-03-18T02:35:55.624Z,98139.14
2019-03-18T02:38:25.767Z,98143.48
2019-03-18T02:40:55.965Z,98153.72
2019-03-18T02:43:26.196Z,98145.23
2019-03-18T02:46:09.447Z,98147.19
2019-03-18T02:48:28.181Z,98145.66
2019-03-18T02:50:58.326Z,98157.14
2019-03-18T02:53:29.349Z,98163.39
2019-03-18T02:55:59.582Z,98158.61
2019-03-18T02:58:29.835Z,98154.77
2019-03-18T03:00:59.986Z,98170.87
2019-03-18T03:03:30.121Z,98175.36
2019-03-18T03:06:00.270Z,98177.06
2019-03-18T03:08:30.529Z,98168.42
2019-03-18T03:11:00.686Z,98172.23
2019-03-18T03:13:30.836Z,98178.85
2019-03-18T03:16:00.934Z,98184.26
2019-03-18T03:18:32.060Z,98188.39
2019-03-18T03:21:02.207Z,98199.52
2019-03-18T03:23:32.356Z,98083.39
2019-03-18T03:26:02.500Z,98205.28
2019-03-18T03:28:32.624Z,98208.17
2019-03-18T03:31:02.954Z,98203.35
2019-03-18T03:33:33.100Z,98206.45
2019-03-18T03:36:03.816Z,98221.75
2019-03-18T03:38:34.952Z,98207.05
2019-03-18T03:41:05.737Z,98209.21
2019-03-18T03:43:35.923Z,98211.20
2019-03-18T03:46:06.042Z,98217.00
2019-03-18T03:48:36.212Z,98216.82
2019-03-18T03:51:06.331Z,98215.27
2019-03-18T03:53:36.607Z,98209.46
2019-03-18T03:56:06.727Z,98215.36
2019-03-18T03:58:37.000Z,98208.98
2019-03-18T04:01:07.118Z,98208.84
2019-03-18T04:03:38.897Z,98202.41
2019-03-18T04:06:09.250Z,98203.05
2019-03-18T04:08:39.404Z,98210.63
2019-03-18T04:11:09.541Z,98221.67
2019-03-18T04:13:39.821Z,98223.61
2019-03-18T04:16:09.954Z,98225.17
2019-03-18T04:18:40.086Z,98231.20
2019-03-18T04:21:10.231Z,98229.13
2019-03-18T04:23:40.376Z,98231.88
2019-03-18T04:26:10.545Z,98231.41
2019-03-18T04:28:40.668Z,98231.66
2019-03-18T04:31:10.812Z,98236.07
2019-03-18T04:33:40.959Z,98233.95
2019-03-18T04:36:11.083Z,98235.54
2019-03-18T04:38:41.220Z,98247.63
2019-03-18T04:41:11.377Z,98252.30
2019-03-18T04:43:41.549Z,98255.61
2019-03-18T04:46:11.673Z,98255.97
2019-03-18T04:48:41.848Z,98255.77
2019-03-18T04:51:11.998Z,98259.20
2019-03-18T04:53:42.257Z,98259.40
2019-03-18T04:56:12.398Z,98258.27
2019-03-18T04:58:42.551Z,98255.80
2019-03-18T05:01:12.695Z,98249.79
2019-03-18T05:03:42.827Z,98258.33
2019-03-18T05:06:12.969Z,98254.08
2019-03-18T05:08:43.118Z,98257.25
2019-03-18T05:11:13.259Z,98260.88
2019-03-18T05:13:43.526Z,98265.99
2019-03-18T05:16:13.666Z,98267.32
2019-03-18T05:18:43.821Z,98270.81
2019-03-18T05:21:14.940Z,98274.31
2019-03-18T05:23:45.125Z,98273.68
2019-03-18T05:26:15.260Z,98271.77
2019-03-18T05:28:45.443Z,98269.92
2019-03-18T05:31:15.572Z,98277.64
2019-03-18T05:33:45.709Z,98279.33
2019-03-18T05:36:15.846Z,98284.61
2019-03-18T05:38:47.963Z,98284.36
2019-03-18T05:41:18.179Z,98288.55
2019-03-18T05:43:48.361Z,98282.98
2019-03-18T05:46:18.803Z,98294.59
2019-03-18T05:48:49.006Z,98292.77
2019-03-18T05:51:19.137Z,98285.15
2019-03-18T05:53:49.298Z,98285.15
2019-03-18T05:56:19.617Z,98294.34
2019-03-18T05:58:50.310Z,98294.61
2019-03-18T06:01:20.678Z,98303.63
2019-03-18T06:03:51.311Z,98304.64
2019-03-18T06:06:21.558Z,98305.44
2019-03-18T06:08:51.972Z,98306.89
2019-03-18T06:11:22.101Z,98305.33
2019-03-18T06:13:52.690Z,98307.04
2019-03-18T06:16:22.832Z,98308.58
2019-03-18T06:18:53.768Z,98311.97
2019-03-18T06:21:24.935Z,98312.33
2019-03-18T06:23:55.985Z,98317.28
2019-03-18T06:26:27.411Z,98317.49
2019-03-18T06:28:58.436Z,98321.33
2019-03-18T06:31:29.849Z,98316.14
2019-03-18T06:34:00.455Z,98322.50
2019-03-18T06:36:30.999Z,98326.49
2019-03-18T06:39:01.216Z,98328.56
2019-03-18T06:41:32.936Z,98330.55
2019-03-18T06:44:03.112Z,98331.17
2019-03-18T06:46:33.751Z,98330.14
2019-03-18T06:49:04.206Z,98338.96
2019-03-18T06:51:37.104Z,98338.98
2019-03-18T06:54:07.613Z,98336.26
2019-03-18T06:56:37.753Z,98344.34
2019-03-18T06:59:07.981Z,98352.46
2019-03-18T07:01:39.091Z,98361.73
2019-03-18T07:04:09.720Z,98363.58
2019-03-18T07:06:39.862Z,98371.05
2019-03-18T07:09:10.353Z,98363.63
2019-03-18T07:11:40.712Z,98370.59
2019-03-18T07:14:10.862Z,98374.47
2019-03-18T07:16:41.007Z,98377.84
2019-03-18T07:19:11.246Z,98381.06
2019-03-18T07:21:41.398Z,98382.59
2019-03-18T07:24:11.768Z,98378.71
2019-03-18T07:26:41.957Z,98387.48
2019-03-18T07:29:12.329Z,98388.11
2019-03-18T07:31:42.841Z,98389.70
2019-03-18T07:34:12.985Z,98393.97
2019-03-18T07:36:43.112Z,98395.52
2019-03-18T07:39:13.255Z,98395.26
2019-03-18T07:41:43.381Z,98401.66
2019-03-18T07:44:13.519Z,98398.22
2019-03-18T07:46:43.639Z,98401.63
2019-03-18T07:49:13.798Z,98406.81
2019-03-18T07:51:43.921Z,98404.61
2019-03-18T07:54:15.017Z,98409.84
2019-03-18T07:56:45.175Z,98411.66
2019-03-18T07:59:15.313Z,98419.15
2019-03-18T08:01:45.482Z,98410.84
2019-03-18T08:04:15.627Z,98417.07
2019-03-18T08:06:45.759Z,98423.43
2019-03-18T08:09:15.900Z,98430.31
2019-03-18T08:11:46.039Z,98435.62
2019-03-18T08:14:16.205Z,98440.36
2019-03-18T08:16:46.343Z,98436.89
2019-03-18T08:19:16.480Z,98438.75
2019-03-18T08:21:46.646Z,98440.67
2019-03-18T08:24:16.789Z,98439.09
2019-03-18T08:26:46.936Z,98454.16
2019-03-18T08:29:17.119Z,98451.00
2019-03-18T08:31:47.256Z,98455.84
2019-03-18T08:34:17.398Z,98456.55
2019-03-18T08:36:47.531Z,98459.22
2019-03-18T08:39:17.657Z,98461.08
2019-03-18T08:41:47.779Z,98464.08
2019-03-18T08:44:17.923Z,98471.45
2019-03-18T08:46:48.046Z,98478.09
2019-03-18T08:49:18.168Z,98474.95
2019-03-18T08:51:48.325Z,98478.94
2019-03-18T08:54:18.476Z,98480.88
2019-03-18T08:56:48.657Z,98476.64
2019-03-18T08:59:18.821Z,98486.16
2019-03-18T09:01:48.953Z,98489.20
2019-03-18T09:04:19.164Z,98486.97
2019-03-18T09:06:49.290Z,98495.80
2019-03-18T09:09:19.492Z,98498.59
2019-03-18T09:11:49.650Z,98499.44
2019-03-18T09:14:19.792Z,98502.94
2019-03-18T09:16:49.964Z,98505.98
2019-03-18T09:19:20.110Z,98508.83
2019-03-18T09:21:50.329Z,98513.27
2019-03-18T09:24:20.471Z,98513.76
2019-03-18T09:27:01.991Z,98512.82
2019-03-18T09:29:22.446Z,98511.43
2019-03-18T09:31:52.595Z,98519.48
2019-03-18T09:34:22.863Z,98513.57
2019-03-18T09:36:52.988Z,98519.45
2019-03-18T09:39:23.140Z,98517.76
2019-03-18T09:41:53.284Z,98525.13
2019-03-18T09:44:23.433Z,98527.53
2019-03-18T09:46:53.618Z,98526.69
2019-03-18T09:49:23.777Z,98529.83
2019-03-18T09:51:53.989Z,98534.41
2019-03-18T09:54:24.161Z,98529.98
2019-03-18T09:56:55.252Z,98537.35
2019-03-18T09:59:25.423Z,98536.50
2019-03-18T10:01:55.563Z,98549.03
2019-03-18T10:04:25.685Z,98550.45
2019-03-18T10:06:55.815Z,98552.45
2019-03-18T10:09:26.006Z,98556.41
2019-03-18T10:11:56.149Z,98562.22
2019-03-18T10:14:26.291Z,98564.48
2019-03-18T10:17:08.736Z,98577.28
2019-03-18T10:19:33.330Z,98576.44
2019-03-18T10:22:00.111Z,98581.63
2019-03-18T10:24:30.250Z,98586.83
2019-03-18T10:27:00.388Z,98589.05
2019-03-18T10:29:30.549Z,98590.56
2019-03-18T10:32:00.699Z,98596.91
2019-03-18T10:34:30.839Z,98610.59
2019-03-18T10:37:00.973Z,98612.98
2019-03-18T10:39:31.397Z,98614.73
2019-03-18T10:42:01.533Z,98618.19
2019-03-18T10:44:31.667Z,98623.97
2019-03-18T10:47:01.797Z,98627.34
2019-03-18T10:49:31.929Z,98630.86
2019-03-18T10:52:02.072Z,98633.30
2019-03-18T10:54:32.263Z,98640.77
2019-03-18T10:57:02.363Z,98646.23
2019-03-18T10:59:32.541Z,98645.66
2019-03-18T11:02:02.663Z,98652.20
2019-03-18T11:04:32.806Z,98652.50
2019-03-18T11:07:02.932Z,98657.58
2019-03-18T11:09:33.058Z,98659.34
2019-03-18T11:12:03.221Z,98660.94
2019-03-18T11:14:33.444Z,98670.39
2019-03-18T11:17:03.578Z,98675.98
2019-03-18T11:19:33.724Z,98687.37
2019-03-18T11:22:03.893Z,98693.09
2019-03-18T11:24:34.016Z,98696.22
2019-03-18T11:27:04.153Z,98704.95
2019-03-18T11:29:34.281Z,98707.64
2019-03-18T11:32:04.520Z,98705.78
2019-03-18T11:34:34.638Z,98710.89
2019-03-18T11:37:04.968Z,98712.00
2019-03-18T11:39:36.056Z,98715.56
2019-03-18T11:42:06.192Z,98719.39
2019-03-18T11:44:36.325Z,98721.11
2019-03-18T11:47:06.488Z,98725.99
2019-03-18T11:49:39.758Z,98738.70
2019-03-18T11:52:08.574Z,98740.95
2019-03-18T11:54:38.730Z,98745.31
2019-03-18T11:57:08.897Z,98752.34
2019-03-18T11:59:39.016Z,98754.73
2019-03-18T12:02:09.198Z,98759.28
2019-03-18T12:04:39.353Z,98770.88
2019-03-18T12:07:09.481Z,98770.89
2019-03-18T12:09:40.573Z,98777.43
2019-03-18T12:12:13.313Z,98784.72
2019-03-18T12:14:42.887Z,98784.23
2019-03-18T12:17:13.091Z,98779.44
2019-03-18T12:19:43.210Z,98793.26
2019-03-18T12:22:13.360Z,98787.31
2019-03-18T12:24:43.490Z,98798.73
2019-03-18T12:27:13.629Z,98803.27
2019-03-18T12:29:43.744Z,98813.33
2019-03-18T12:32:13.895Z,98806.47
2019-03-18T12:34:44.979Z,98812.02
2019-03-18T12:37:15.134Z,98815.52
2019-03-18T12:39:45.386Z,98822.69
2019-03-18T12:42:15.563Z,98827.98
2019-03-18T12:44:45.695Z,98822.41
2019-03-18T12:47:15.924Z,98825.44
2019-03-18T12:49:46.317Z,98828.20
2019-03-18T12:52:16.597Z,98827.68
2019-03-18T12:54:46.722Z,98833.63
2019-03-18T12:57:16.887Z,98836.38
2019-03-18T12:59:47.191Z,98848.13
2019-03-18T13:02:17.335Z,98844.61
2019-03-18T13:04:47.472Z,98849.36
2019-03-18T13:07:17.701Z,98854.30
2019-03-18T13:09:47.880Z,98862.67
2019-03-18T13:12:19.259Z,98857.95
2019-03-18T13:14:49.513Z,98870.17
2019-03-18T13:17:19.846Z,98877.34
2019-03-18T13:19:50.135Z,98889.48
2019-03-18T13:22:20.260Z,98892.12
2019-03-18T13:24:50.657Z,98900.13
2019-03-18T13:27:21.137Z,98902.00
2019-03-18T13:29:51.249Z,98909.08
2019-03-18T13:32:21.467Z,98904.94
2019-03-18T13:34:51.645Z,98915.90
2019-03-18T13:37:21.772Z,98919.15
2019-03-18T13:39:52.041Z,98931.22
2019-03-18T13:42:22.255Z,98928.72
2019-03-18T13:44:52.451Z,98942.25
2019-03-18T13:47:22.600Z,98952.34
2019-03-18T13:49:52.824Z,98959.80
2019-03-18T13:52:23.026Z,98967.99
2019-03-18T13:54:53.208Z,98967.96
2019-03-18T13:57:23.375Z,98976.70
2019-03-18T13:59:53.568Z,98983.11
2019-03-18T14:02:23.763Z,98986.87
2019-03-18T14:04:54.009Z,98995.28
2019-03-18T14:07:24.193Z,99004.84
2019-03-18T14:09:54.330Z,99008.36
2019-03-18T14:12:24.582Z,99011.02
2019-03-18T14:14:54.839Z,99011.89
2019-03-18T14:17:25.986Z,99018.56
2019-03-18T14:19:56.096Z,99015.67
2019-03-18T14:22:26.339Z,99041.83
2019-03-18T14:24:56.639Z,99049.34
2019-03-18T14:29:55.680Z,99068.31
2019-03-18T14:32:26.187Z,99078.56
2019-03-18T14:34:56.391Z,99083.17
2019-03-18T14:37:26.534Z,99088.49
2019-03-18T14:39:56.830Z,99103.01
2019-03-18T14:42:26.999Z,99113.30
2019-03-18T14:44:57.213Z,99123.66
2019-03-18T14:47:27.342Z,99129.80
2019-03-18T14:49:57.619Z,99133.69
2019-03-18T14:52:27.904Z,99140.74
2019-03-18T14:54:58.048Z,99152.22
2019-03-18T14:57:28.270Z,99161.51
2019-03-18T14:59:58.429Z,99184.73
2019-03-18T15:02:28.561Z,99183.85
2019-03-18T15:04:58.838Z,99196.18
2019-03-18T15:07:28.998Z,99195.28
2019-03-18T15:09:59.251Z,99211.24
2019-03-18T15:12:29.415Z,99227.44
2019-03-18T15:14:59.696Z,99240.37
2019-03-18T15:17:30.636Z,99238.08
2019-03-18T15:20:02.434Z,99257.39
2019-03-18T15:22:32.622Z,99258.39
2019-03-18T15:25:02.833Z,99273.66
2019-03-18T15:27:33.024Z,99280.04
2019-03-18T15:30:03.244Z,99292.32
2019-03-18T15:32:33.403Z,99308.63
2019-03-18T15:35:03.628Z,99307.98
2019-03-18T15:37:33.745Z,99322.64
2019-03-18T15:40:04.074Z,99327.84
2019-03-18T15:42:34.257Z,99333.07
2019-03-18T15:45:04.565Z,99343.70
2019-03-18T15:47:34.696Z,99342.20
2019-03-18T15:50:05.398Z,99351.42
2019-03-18T15:52:35.551Z,99355.01
2019-03-18T15:55:06.025Z,99365.52
2019-03-18T15:57:36.403Z,99373.67
2019-03-18T16:00:08.003Z,99383.91
2019-03-18T16:02:38.354Z,99379.36
2019-03-18T16:05:08.717Z,99400.49
2019-03-18T16:07:39.064Z,99415.09
2019-03-18T16:10:11.063Z,99413.81
2019-03-18T16:12:41.439Z,99437.22
2019-03-18T16:15:11.901Z,99436.34
2019-03-18T16:17:42.118Z,99444.97
2019-03-18T16:20:13.377Z,99451.80
2019-03-18T16:22:43.529Z,99456.16
2019-03-18T16:25:13.683Z,99474.95
2019-03-18T16:27:43.833Z,99474.80
2019-03-18T16:30:14.575Z,99498.76
2019-03-18T16:32:44.724Z,99497.05
2019-03-18T16:35:16.189Z,99510.22
2019-03-18T16:37:46.566Z,99515.61
2019-03-18T16:40:16.933Z,99521.28
2019-03-18T16:42:47.168Z,99528.79
2019-03-18T16:45:17.416Z,99536.94
2019-03-18T16:47:47.668Z,99541.30
2019-03-18T16:50:18.057Z,99547.33
2019-03-18T16:52:48.502Z,99551.09
2019-03-18T16:55:18.731Z,99436.48
2019-03-18T16:57:48.901Z,99570.84
2019-03-18T17:00:19.514Z,99583.71
2019-03-18T17:02:49.610Z,99586.41
2019-03-18T17:05:20.139Z,99592.01
2019-03-18T17:07:50.597Z,99596.93
2019-03-18T17:10:21.296Z,99605.82
2019-03-18T17:12:51.633Z,99605.40
2019-03-18T17:15:21.875Z,99621.86
2019-03-18T17:17:53.824Z,99627.63
2019-03-18T17:20:24.296Z,99636.98
2019-03-18T17:22:54.555Z,99641.38
2019-03-18T17:25:25.268Z,99644.20
2019-03-18T17:27:55.979Z,99656.75
2019-03-18T17:30:27.230Z,99656.97
2019-03-18T17:32:57.439Z,99670.53
2019-03-18T17:35:27.845Z,99676.38
2019-03-18T17:37:58.529Z,99684.03
2019-03-18T17:40:29.119Z,99684.58
2019-03-18T17:42:59.701Z,99690.75
2019-03-18T17:45:30.008Z,99707.42
2019-03-18T17:48:00.675Z,99699.70
2019-03-18T17:50:31.163Z,99707.02
2019-03-18T17:53:03.731Z,99723.09
2019-03-18T17:55:33.666Z,99718.16
2019-03-18T17:58:03.867Z,99730.27
2019-03-18T18:00:37.946Z,99742.02
2019-03-18T18:03:08.585Z,99752.85
2019-03-18T18:05:38.906Z,99756.05
2019-03-18T18:08:09.448Z,99757.14
2019-03-18T18:10:39.762Z,99753.14
2019-03-18T18:13:10.295Z,99754.55
2019-03-18T18:15:41.234Z,99756.81
2019-03-18T18:18:11.616Z,99763.35
2019-03-18T18:20:41.997Z,99765.37
2019-03-18T18:23:14.802Z,99767.87
2019-03-18T18:25:44.207Z,99777.14
2019-03-18T18:28:14.683Z,99778.23
2019-03-18T18:30:46.554Z,99775.89
2019-03-18T18:33:17.461Z,99783.84
2019-03-18T18:35:47.851Z,99789.83
2019-03-18T18:38:18.857Z,99782.50
2019-03-18T18:40:49.508Z,99793.30
2019-03-18T18:43:19.804Z,99797.17
2019-03-18T18:45:50.574Z,99808.94
2019-03-18T18:48:20.776Z,99819.03
2019-03-18T18:50:51.071Z,99823.34
2019-03-18T18:53:26.162Z,99838.66
2019-03-18T18:55:53.121Z,99841.53
2019-03-18T18:58:23.415Z,99830.47
2019-03-18T19:00:53.573Z,99841.28
2019-03-18T19:03:23.791Z,99856.70
2019-03-18T19:05:53.960Z,99756.03
2019-03-18T19:08:24.225Z,99869.17
2019-03-18T19:10:54.396Z,99871.92
2019-03-18T19:13:24.570Z,99877.00
2019-03-18T19:15:54.930Z,99883.00
2019-03-18T19:18:25.117Z,99890.23
2019-03-18T19:20:55.269Z,99895.28
2019-03-18T19:23:36.953Z,99888.69
2019-03-18T19:25:57.795Z,99899.81
2019-03-18T19:28:28.322Z,99910.01
2019-03-18T19:30:58.692Z,99906.50
2019-03-18T19:33:29.484Z,99911.41
2019-03-18T19:36:00.023Z,99916.23
2019-03-18T19:38:30.378Z,99922.31
2019-03-18T19:41:00.643Z,99924.58
2019-03-18T19:43:31.108Z,99926.01
2019-03-18T19:46:01.280Z,99929.73
2019-03-18T19:48:31.417Z,99931.58
2019-03-18T19:51:01.574Z,99942.25
2019-03-18T19:53:31.695Z,99944.00
2019-03-18T19:56:01.849Z,99938.23
2019-03-18T19:58:31.989Z,99947.58
2019-03-18T20:01:02.142Z,99950.91
2019-03-18T20:03:33.242Z,99953.48
2019-03-18T20:06:03.382Z,99962.53
2019-03-18T20:08:33.517Z,99964.50
2019-03-18T20:11:03.656Z,99971.77
2019-03-18T20:13:33.766Z,99974.41
2019-03-18T20:16:03.995Z,99977.23
2019-03-18T20:18:34.131Z,99978.14
2019-03-18T20:21:04.322Z,99979.09
2019-03-18T20:23:34.456Z,99992.13
2019-03-18T20:26:04.608Z,99994.98
2019-03-18T20:28:34.759Z,100002.02
2019-03-18T20:31:04.977Z,100010.41
2019-03-18T20:33:35.538Z,100009.11
2019-03-18T20:36:05.788Z,100012.33
2019-03-18T20:38:36.049Z,100021.92
2019-03-18T20:41:06.401Z,100032.20
2019-03-18T20:43:36.630Z,100029.02
2019-03-18T20:46:06.859Z,100034.71
2019-03-18T20:48:37.011Z,100028.94
2019-03-18T20:51:07.167Z,100044.13
2019-03-18T20:53:37.466Z,100048.65
2019-03-18T20:56:07.607Z,100046.86
2019-03-18T20:58:38.240Z,100048.89
2019-03-18T21:01:08.402Z,100055.81
2019-03-18T21:03:38.562Z,100062.98
2019-03-18T21:06:08.949Z,100065.95
2019-03-18T21:08:39.123Z,100076.94
2019-03-18T21:11:09.334Z,100077.16
2019-03-18T21:13:39.493Z,100080.23
2019-03-18T21:16:09.841Z,100087.76
2019-03-18T21:18:40.203Z,100086.83
2019-03-18T21:21:10.460Z,100095.17
2019-03-18T21:23:40.594Z,100093.99
2019-03-18T21:26:10.770Z,99985.72
2019-03-18T21:28:42.568Z,100105.31
2019-03-18T21:31:13.091Z,100111.61
2019-03-18T21:33:43.666Z,100108.03
2019-03-18T21:36:28.113Z,100117.70
2019-03-18T21:38:46.978Z,100126.91
2019-03-18T21:41:19.068Z,100136.90
2019-03-18T21:43:49.769Z,100134.17
2019-03-18T21:46:20.200Z,100136.76
2019-03-18T21:48:50.577Z,100133.03
2019-03-18T21:51:21.232Z,100142.38
2019-03-18T21:53:51.389Z,100135.22
2019-03-18T21:56:22.844Z,100140.52
2019-03-18T21:58:53.011Z,100153.20
2019-03-18T22:01:23.214Z,100153.77
2019-03-18T22:03:53.576Z,100159.61
2019-03-18T22:06:23.723Z,100169.47
2019-03-18T22:08:55.143Z,100170.25
2019-03-18T22:11:25.357Z,100168.86
2019-03-18T22:13:55.885Z,100172.12
2019-03-18T22:16:26.087Z,100189.61
2019-03-18T22:18:56.539Z,100196.56
2019-03-18T22:21:27.165Z,100200.00
2019-03-18T22:23:57.698Z,100195.59
2019-03-18T22:26:27.939Z,100199.86
2019-03-18T22:28:58.191Z,100209.06
2019-03-18T22:31:28.889Z,100216.63
2019-03-18T22:34:00.085Z,100218.34
2019-03-18T22:36:30.703Z,100225.45
2019-03-18T22:39:01.579Z,100230.75
2019-03-18T22:41:32.778Z,100242.14
2019-03-18T22:44:03.501Z,100244.88
2019-03-18T22:46:34.150Z,100248.85
2019-03-18T22:49:04.277Z,100246.66
2019-03-18T22:51:34.439Z,100248.31
2019-03-18T22:54:04.573Z,100249.72
2019-03-18T22:56:34.716Z,100253.55
2019-03-18T22:59:04.933Z,100260.07
2019-03-18T23:01:35.259Z,100261.04
2019-03-18T23:04:05.401Z,100271.14
2019-03-18T23:06:35.539Z,100275.98
2019-03-18T23:09:06.585Z,100274.66
2019-03-18T23:11:36.713Z,100283.08
2019-03-18T23:14:06.856Z,100288.64
2019-03-18T23:16:37.000Z,100295.13
2019-03-18T23:19:07.144Z,100303.37
2019-03-18T23:21:37.298Z,100308.33
2019-03-18T23:24:07.463Z,100311.12
2019-03-18T23:26:37.598Z,100317.81
2019-03-18T23:29:07.809Z,100320.87
2019-03-18T23:31:37.955Z,100322.97
2019-03-18T23:34:08.105Z,100321.11
2019-03-18T23:36:38.258Z,100319.27
2019-03-18T23:39:09.114Z,100323.31
2019-03-18T23:41:39.285Z,100327.89
2019-03-18T23:44:09.457Z,100334.25
2019-03-18T23:46:39.636Z,100329.06
2019-03-18T23:49:09.783Z,100333.20
2019-03-18T23:51:39.937Z,100341.43
2019-03-18T23:54:10.093Z,100343.61
2019-03-18T23:56:40.240Z,100346.52
2019-03-18T23:59:10.387Z,100350.49
